sensor_id;sensor_type;location;lat;lon;timestamp;pressure;altitude;pressure_sealevel;temperature;humidity
65227;BME280;51805;49.012;12.104;2024-01-15T00:02:14;96451.69;;;22.13;54.14
65227;BME280;51805;49.012;12.104;2024-01-15T00:04:40;96451.56;;;22.18;54.32
65227;BME280;51805;49.012;12.104;2024-01-15T00:07:06;96467.31;;;22.16;54.14
65227;BME280;51805;49.012;12.104;2024-01-15T00:09:32;96477.66;;;22.14;54.24
65227;BME280;51805;49.012;12.104;2024-01-15T00:11:59;96469.53;;;22.14;54.32
65227;BME280;51805;49.012;12.104;2024-01-15T00:14:24;96452.00;;;22.03;54.19
65227;BME280;51805;49.012;12.104;2024-01-15T00:16:50;96450.88;;;22.04;54.42
65227;BME280;51805;49.012;12.104;2024-01-15T00:19:15;96442.28;;;22.02;54.45
65227;BME280;51805;49.012;12.104;2024-01-15T00:21:40;96450.41;;;22.02;54.25
65227;BME280;51805;49.012;12.104;2024-01-15T00:24:07;96443.38;;;22.01;54.38
65227;BME280;51805;49.012;12.104;2024-01-15T00:26:32;96434.44;;;21.92;54.19
65227;BME280;51805;49.012;12.104;2024-01-15T00:28:57;96446.72;;;21.98;54.50
65227;BME280;51805;49.012;12.104;2024-01-15T00:31:23;96443.66;;;21.91;54.54
65227;BME280;51805;49.012;12.104;2024-01-15T00:33:48;96436.50;;;21.87;54.44
65227;BME280;51805;49.012;12.104;2024-01-15T00:36:13;96451.78;;;21.91;54.74
65227;BME280;51805;49.012;12.104;2024-01-15T00:38:38;96459.91;;;21.91;54.69
65227;BME280;51805;49.012;12.104;2024-01-15T00:41:04;96441.06;;;21.78;54.70
65227;BME280;51805;49.012;12.104;2024-01-15T00:43:29;96450.75;;;21.79;54.80
65227;BME280;51805;49.012;12.104;2024-01-15T00:45:54;96439.31;;;21.82;54.93
65227;BME280;51805;49.012;12.104;2024-01-15T00:48:19;96444.53;;;21.78;54.90
65227;BME280;51805;49.012;12.104;2024-01-15T00:50:45;96448.78;;;21.71;54.98
65227;BME280;51805;49.012;12.104;2024-01-15T00:53:10;96465.09;;;21.79;54.82
65227;BME280;51805;49.012;12.104;2024-01-15T00:55:35;96459.78;;;21.74;55.03
65227;BME280;51805;49.012;12.104;2024-01-15T00:58:01;96457.19;;;21.69;55.08
65227;BME280;51805;49.012;12.104;2024-01-15T01:00:26;96450.94;;;21.60;54.92
65227;BME280;51805;49.012;12.104;2024-01-15T01:02:51;96447.94;;;21.62;55.45
65227;BME280;51805;49.012;12.104;2024-01-15T01:05:16;96445.53;;;21.60;55.29
65227;BME280;51805;49.012;12.104;2024-01-15T01:07:42;96447.44;;;21.60;55.14
65227;BME280;51805;49.012;12.104;2024-01-15T01:10:07;96449.66;;;21.58;55.35
65227;BME280;51805;49.012;12.104;2024-01-15T01:12:32;96441.84;;;21.56;55.46
65227;BME280;51805;49.012;12.104;2024-01-15T01:14:58;96459.41;;;21.67;54.89
65227;BME280;51805;49.012;12.104;2024-01-15T01:17:23;96459.25;;;21.64;55.18
65227;BME280;51805;49.012;12.104;2024-01-15T01:19:49;96456.97;;;21.57;55.19
65227;BME280;51805;49.012;12.104;2024-01-15T01:22:14;96462.06;;;21.59;55.29
65227;BME280;51805;49.012;12.104;2024-01-15T01:24:40;96455.84;;;21.58;55.32
65227;BME280;51805;49.012;12.104;2024-01-15T01:27:05;96447.69;;;21.50;55.21
65227;BME280;51805;49.012;12.104;2024-01-15T01:29:30;96456.78;;;21.54;55.28
65227;BME280;51805;49.012;12.104;2024-01-15T01:31:56;96458.50;;;21.50;55.20
65227;BME280;51805;49.012;12.104;2024-01-15T01:34:21;96468.72;;;21.53;55.07
65227;BME280;51805;49.012;12.104;2024-01-15T01:36:46;96469.69;;;21.57;55.08
65227;BME280;51805;49.012;12.104;2024-01-15T01:39:11;96465.31;;;21.47;54.93
65227;BME280;51805;49.012;12.104;2024-01-15T01:41:38;96477.59;;;21.53;55.14
65227;BME280;51805;49.012;12.104;2024-01-15T01:44:03;96469.25;;;21.41;55.24
65227;BME280;51805;49.012;12.104;2024-01-15T01:46:29;96472.63;;;21.47;55.08
65227;BME280;51805;49.012;12.104;2024-01-15T01:48:55;96477.13;;;21.51;55.26
65227;BME280;51805;49.012;12.104;2024-01-15T01:51:22;96471.47;;;21.39;55.43
65227;BME280;51805;49.012;12.104;2024-01-15T01:53:48;96469.75;;;21.43;55.21
65227;BME280;51805;49.012;12.104;2024-01-15T01:56:14;96459.56;;;21.40;55.48
65227;BME280;51805;49.012;12.104;2024-01-15T01:58:39;96467.53;;;21.45;55.13
65227;BME280;51805;49.012;12.104;2024-01-15T02:01:05;96474.53;;;21.46;54.88
65227;BME280;51805;49.012;12.104;2024-01-15T02:03:30;96472.34;;;21.48;55.05
65227;BME280;51805;49.012;12.104;2024-01-15T02:05:56;96465.81;;;21.49;55.01
65227;BME280;51805;49.012;12.104;2024-01-15T02:08:21;96477.53;;;21.44;55.12
65227;BME280;51805;49.012;12.104;2024-01-15T02:10:47;96452.06;;;21.37;54.89
65227;BME280;51805;49.012;12.104;2024-01-15T02:13:12;96471.34;;;21.44;54.92
65227;BME280;51805;49.012;12.104;2024-01-15T02:15:37;96469.97;;;21.33;55.35
65227;BME280;51805;49.012;12.104;2024-01-15T02:18:04;96475.78;;;21.40;55.14
65227;BME280;51805;49.012;12.104;2024-01-15T02:20:30;96460.09;;;21.28;55.14
65227;BME280;51805;49.012;12.104;2024-01-15T02:23:08;96472.69;;;21.33;55.50
65227;BME280;51805;49.012;12.104;2024-01-15T02:25:33;96465.06;;;21.35;55.27
65227;BME280;51805;49.012;12.104;2024-01-15T02:27:59;96460.78;;;21.34;54.88
65227;BME280;51805;49.012;12.104;2024-01-15T02:30:25;96469.09;;;21.37;55.31
65227;BME280;51805;49.012;12.104;2024-01-15T02:32:50;96472.38;;;21.34;55.14
65227;BME280;51805;49.012;12.104;2024-01-15T02:35:16;96466.00;;;21.30;55.11
65227;BME280;51805;49.012;12.104;2024-01-15T02:37:41;96454.03;;;21.23;55.17
65227;BME280;51805;49.012;12.104;2024-01-15T02:40:07;96480.31;;;21.31;55.08
65227;BME280;51805;49.012;12.104;2024-01-15T02:42:32;96466.81;;;21.31;55.01
65227;BME280;51805;49.012;12.104;2024-01-15T02:44:58;96450.16;;;21.15;55.06
65227;BME280;51805;49.012;12.104;2024-01-15T02:47:23;96484.09;;;21.30;55.08
65227;BME280;51805;49.012;12.104;2024-01-15T02:49:48;96479.69;;;21.34;54.98
65227;BME280;51805;49.012;12.104;2024-01-15T02:52:13;96472.81;;;21.28;54.71
65227;BME280;51805;49.012;12.104;2024-01-15T02:54:39;96470.22;;;21.23;54.85
65227;BME280;51805;49.012;12.104;2024-01-15T02:57:04;96464.47;;;21.16;54.82
65227;BME280;51805;49.012;12.104;2024-01-15T02:59:29;96477.06;;;21.20;54.85
65227;BME280;51805;49.012;12.104;2024-01-15T03:01:55;96467.84;;;21.21;54.95
65227;BME280;51805;49.012;12.104;2024-01-15T03:04:20;96434.00;;;21.02;55.09
65227;BME280;51805;49.012;12.104;2024-01-15T03:06:45;96469.94;;;21.24;54.97
65227;BME280;51805;49.012;12.104;2024-01-15T03:09:10;96463.34;;;21.17;54.92
65227;BME280;51805;49.012;12.104;2024-01-15T03:11:39;96466.72;;;21.22;55.01
65227;BME280;51805;49.012;12.104;2024-01-15T03:14:04;96458.75;;;21.17;54.50
65227;BME280;51805;49.012;12.104;2024-01-15T03:16:29;96451.84;;;21.11;54.99
65227;BME280;51805;49.012;12.104;2024-01-15T03:18:55;96462.84;;;21.15;54.95
65227;BME280;51805;49.012;12.104;2024-01-15T03:21:20;96481.16;;;21.18;54.92
65227;BME280;51805;49.012;12.104;2024-01-15T03:23:45;96462.50;;;21.08;54.86
65227;BME280;51805;49.012;12.104;2024-01-15T03:26:11;96475.28;;;21.16;54.68
65227;BME280;51805;49.012;12.104;2024-01-15T03:28:36;96467.91;;;21.08;54.86
65227;BME280;51805;49.012;12.104;2024-01-15T03:31:01;96477.47;;;21.14;54.52
65227;BME280;51805;49.012;12.104;2024-01-15T03:33:26;96488.16;;;21.19;54.88
65227;BME280;51805;49.012;12.104;2024-01-15T03:35:52;96474.28;;;21.12;54.73
65227;BME280;51805;49.012;12.104;2024-01-15T03:38:17;96474.28;;;21.12;54.56
65227;BME280;51805;49.012;12.104;2024-01-15T03:40:42;96469.97;;;21.11;54.42
65227;BME280;51805;49.012;12.104;2024-01-15T03:43:07;96458.97;;;21.07;54.79
65227;BME280;51805;49.012;12.104;2024-01-15T03:45:33;96464.59;;;21.11;54.67
65227;BME280;51805;49.012;12.104;2024-01-15T03:47:58;96465.66;;;21.10;54.63
65227;BME280;51805;49.012;12.104;2024-01-15T03:50:23;96463.56;;;21.07;54.74
65227;BME280;51805;49.012;12.104;2024-01-15T03:52:49;96469.97;;;21.11;54.79
65227;BME280;51805;49.012;12.104;2024-01-15T03:55:14;96457.69;;;21.05;54.65
65227;BME280;51805;49.012;12.104;2024-01-15T03:57:39;96459.09;;;21.02;54.47
65227;BME280;51805;49.012;12.104;2024-01-15T04:00:05;96465.66;;;21.10;54.14
65227;BME280;51805;49.012;12.104;2024-01-15T04:02:30;96409.16;;;20.78;54.53
65227;BME280;51805;49.012;12.104;2024-01-15T04:04:55;96465.66;;;21.10;54.60
65227;BME280;51805;49.012;12.104;2024-01-15T04:07:21;96448.13;;;20.99;54.50
65227;BME280;51805;49.012;12.104;2024-01-15T04:09:46;96458.47;;;21.05;54.65
65227;BME280;51805;49.012;12.104;2024-01-15T04:12:11;96449.41;;;21.01;54.67
65227;BME280;51805;49.012;12.104;2024-01-15T04:14:37;96452.31;;;21.05;54.55
65227;BME280;51805;49.012;12.104;2024-01-15T04:17:02;96415.56;;;20.82;54.68
65227;BME280;51805;49.012;12.104;2024-01-15T04:19:27;96428.28;;;20.90;54.29
65227;BME280;51805;49.012;12.104;2024-01-15T04:21:52;96429.91;;;20.91;54.46
65227;BME280;51805;49.012;12.104;2024-01-15T04:24:18;96444.69;;;20.93;54.45
65227;BME280;51805;49.012;12.104;2024-01-15T04:26:43;96451.28;;;21.01;54.43
65227;BME280;51805;49.012;12.104;2024-01-15T04:29:08;96451.28;;;21.01;54.41
65227;BME280;51805;49.012;12.104;2024-01-15T04:31:34;96451.13;;;20.97;54.32
65227;BME280;51805;49.012;12.104;2024-01-15T04:33:59;96444.69;;;20.93;54.20
65227;BME280;51805;49.012;12.104;2024-01-15T04:36:24;96448.91;;;20.99;53.97
65227;BME280;51805;49.012;12.104;2024-01-15T04:38:49;96448.91;;;20.99;54.11
65227;BME280;51805;49.012;12.104;2024-01-15T04:41:16;96445.81;;;20.92;54.21
65227;BME280;51805;49.012;12.104;2024-01-15T04:43:41;96442.31;;;20.92;54.15
65227;BME280;51805;49.012;12.104;2024-01-15T04:46:07;96444.19;;;20.91;53.91
65227;BME280;51805;49.012;12.104;2024-01-15T04:48:32;96446.28;;;20.94;54.18
65227;BME280;51805;49.012;12.104;2024-01-15T04:50:58;96446.28;;;20.94;54.04
65227;BME280;51805;49.012;12.104;2024-01-15T04:53:23;96433.53;;;20.86;53.96
65227;BME280;51805;49.012;12.104;2024-01-15T04:55:48;96448.75;;;20.96;53.99
65227;BME280;51805;49.012;12.104;2024-01-15T04:58:14;96441.50;;;20.91;53.66
65227;BME280;51805;49.012;12.104;2024-01-15T05:00:39;96438.47;;;20.93;53.95
65227;BME280;51805;49.012;12.104;2024-01-15T05:03:04;96427.69;;;20.93;53.88
65227;BME280;51805;49.012;12.104;2024-01-15T05:05:29;96424.13;;;20.97;53.70
65227;BME280;51805;49.012;12.104;2024-01-15T05:07:55;96428.81;;;20.92;53.87
65227;BME280;51805;49.012;12.104;2024-01-15T05:10:20;96411.94;;;20.86;53.64
65227;BME280;51805;49.012;12.104;2024-01-15T05:12:45;96417.31;;;21.00;53.61
65227;BME280;51805;49.012;12.104;2024-01-15T05:15:11;96410.78;;;21.01;53.72
65227;BME280;51805;49.012;12.104;2024-01-15T05:17:36;96407.31;;;21.00;53.76
65227;BME280;51805;49.012;12.104;2024-01-15T05:20:01;96406.50;;;21.00;53.66
65227;BME280;51805;49.012;12.104;2024-01-15T05:22:26;96404.91;;;20.99;53.88
65227;BME280;51805;49.012;12.104;2024-01-15T05:24:52;96406.31;;;20.96;53.75
65227;BME280;51805;49.012;12.104;2024-01-15T05:27:17;96422.41;;;21.01;53.82
65227;BME280;51805;49.012;12.104;2024-01-15T05:29:42;96401.28;;;20.90;53.99
65227;BME280;51805;49.012;12.104;2024-01-15T05:32:08;96425.59;;;21.03;53.87
65227;BME280;51805;49.012;12.104;2024-01-15T05:34:33;96418.72;;;20.97;53.81
65227;BME280;51805;49.012;12.104;2024-01-15T05:36:58;96415.09;;;21.02;53.79
65227;BME280;51805;49.012;12.104;2024-01-15T05:39:23;96402.69;;;21.01;53.78
65227;BME280;51805;49.012;12.104;2024-01-15T05:41:49;96413.69;;;21.04;53.51
65227;BME280;51805;49.012;12.104;2024-01-15T05:44:14;96416.69;;;21.03;53.77
65227;BME280;51805;49.012;12.104;2024-01-15T05:46:39;96397.91;;;20.98;53.98
65227;BME280;51805;49.012;12.104;2024-01-15T05:49:04;96417.66;;;21.07;53.78
65227;BME280;51805;49.012;12.104;2024-01-15T05:51:30;96419.38;;;21.03;53.88
65227;BME280;51805;49.012;12.104;2024-01-15T05:53:55;96424.28;;;21.01;53.52
65227;BME280;51805;49.012;12.104;2024-01-15T05:56:20;96422.72;;;21.00;53.66
65227;BME280;51805;49.012;12.104;2024-01-15T05:58:46;96421.97;;;21.08;53.71
65227;BME280;51805;49.012;12.104;2024-01-15T06:01:11;96412.41;;;21.02;53.55
65227;BME280;51805;49.012;12.104;2024-01-15T06:03:36;96420.06;;;21.08;53.37
65227;BME280;51805;49.012;12.104;2024-01-15T06:06:01;96426.34;;;21.17;53.23
65227;BME280;51805;49.012;12.104;2024-01-15T06:08:27;96427.94;;;21.18;53.38
65227;BME280;51805;49.012;12.104;2024-01-15T06:10:52;96431.56;;;21.14;53.49
65227;BME280;51805;49.012;12.104;2024-01-15T06:13:17;96434.75;;;21.16;53.59
65227;BME280;51805;49.012;12.104;2024-01-15T06:15:42;96431.75;;;21.17;53.24
65227;BME280;51805;49.012;12.104;2024-01-15T06:18:08;96404.31;;;21.02;53.32
65227;BME280;51805;49.012;12.104;2024-01-15T06:20:33;96435.84;;;21.15;53.39
65227;BME280;51805;49.012;12.104;2024-01-15T06:22:58;96416.28;;;21.09;53.26
65227;BME280;51805;49.012;12.104;2024-01-15T06:25:24;96427.13;;;21.18;53.21
65227;BME280;51805;49.012;12.104;2024-01-15T06:27:49;96420.75;;;21.14;53.28
65227;BME280;51805;49.012;12.104;2024-01-15T06:30:14;96430.63;;;21.18;53.19
65227;BME280;51805;49.012;12.104;2024-01-15T06:32:40;96416.88;;;21.06;52.74
65227;BME280;51805;49.012;12.104;2024-01-15T06:35:05;96424.63;;;21.21;52.77
65227;BME280;51805;49.012;12.104;2024-01-15T06:37:31;96414.97;;;21.29;52.82
65227;BME280;51805;49.012;12.104;2024-01-15T06:39:56;96420.88;;;21.31;52.87
65227;BME280;51805;49.012;12.104;2024-01-15T06:42:21;96409.69;;;21.24;52.90
65227;BME280;51805;49.012;12.104;2024-01-15T06:44:47;96419.31;;;21.38;52.69
65227;BME280;51805;49.012;12.104;2024-01-15T06:47:12;96424.31;;;21.45;52.51
65227;BME280;51805;49.012;12.104;2024-01-15T06:49:37;96430.06;;;21.52;52.51
65227;BME280;51805;49.012;12.104;2024-01-15T06:52:03;96429.09;;;21.48;52.85
65227;BME280;51805;49.012;12.104;2024-01-15T06:54:28;96413.19;;;21.47;52.58
65227;BME280;51805;49.012;12.104;2024-01-15T06:56:53;96432.03;;;21.60;52.28
65227;BME280;51805;49.012;12.104;2024-01-15T06:59:19;96429.44;;;21.55;52.83
65227;BME280;51805;49.012;12.104;2024-01-15T07:01:44;96418.13;;;21.53;52.49
65227;BME280;51805;49.012;12.104;2024-01-15T07:04:09;96400.81;;;21.54;52.24
65227;BME280;51805;49.012;12.104;2024-01-15T07:06:35;96413.84;;;21.52;52.72
65227;BME280;51805;49.012;12.104;2024-01-15T07:09:00;96401.00;;;21.58;52.19
65227;BME280;51805;49.012;12.104;2024-01-15T07:11:25;96389.63;;;21.47;52.69
65227;BME280;51805;49.012;12.104;2024-01-15T07:13:50;96396.38;;;21.58;52.49
65227;BME280;51805;49.012;12.104;2024-01-15T07:16:16;96400.22;;;21.66;52.33
65227;BME280;51805;49.012;12.104;2024-01-15T07:18:41;96403.44;;;21.68;52.51
65227;BME280;51805;49.012;12.104;2024-01-15T07:21:06;96407.31;;;21.75;52.21
65227;BME280;51805;49.012;12.104;2024-01-15T07:23:32;96411.09;;;21.74;52.27
65227;BME280;51805;49.012;12.104;2024-01-15T07:25:57;96411.47;;;21.81;51.97
65227;BME280;51805;49.012;12.104;2024-01-15T07:28:22;96407.31;;;21.75;52.41
65227;BME280;51805;49.012;12.104;2024-01-15T07:30:48;96406.31;;;21.71;52.32
65227;BME280;51805;49.012;12.104;2024-01-15T07:33:13;96385.53;;;21.50;52.61
65227;BME280;51805;49.012;12.104;2024-01-15T07:35:38;96395.59;;;21.58;52.34
65227;BME280;51805;49.012;12.104;2024-01-15T07:38:04;96402.78;;;21.62;52.39
65227;BME280;51805;49.012;12.104;2024-01-15T07:40:29;96392.94;;;21.66;52.10
65227;BME280;51805;49.012;12.104;2024-01-15T07:42:54;96418.53;;;21.69;52.23
65227;BME280;51805;49.012;12.104;2024-01-15T07:45:19;96398.00;;;21.59;52.03
65227;BME280;51805;49.012;12.104;2024-01-15T07:47:45;96407.06;;;21.63;52.47
65227;BME280;51805;49.012;12.104;2024-01-15T07:50:10;96422.28;;;21.81;51.92
65227;BME280;51805;49.012;12.104;2024-01-15T07:52:35;96414.19;;;21.81;52.15
65227;BME280;51805;49.012;12.104;2024-01-15T07:55:01;96412.09;;;21.78;52.08
65227;BME280;51805;49.012;12.104;2024-01-15T07:57:26;96411.00;;;21.79;51.89
65227;BME280;51805;49.012;12.104;2024-01-15T07:59:51;96422.81;;;21.92;51.62
65227;BME280;51805;49.012;12.104;2024-01-15T08:02:16;96425.81;;;21.90;51.74
65227;BME280;51805;49.012;12.104;2024-01-15T08:04:42;96395.69;;;21.75;51.64
65227;BME280;51805;49.012;12.104;2024-01-15T08:07:07;96436.19;;;21.97;51.75
65227;BME280;51805;49.012;12.104;2024-01-15T08:09:32;96438.78;;;22.02;51.70
65227;BME280;51805;49.012;12.104;2024-01-15T08:11:58;96413.09;;;21.91;51.71
65227;BME280;51805;49.012;12.104;2024-01-15T08:14:23;96424.94;;;22.03;52.01
65227;BME280;51805;49.012;12.104;2024-01-15T08:16:48;96428.13;;;22.05;51.81
65227;BME280;51805;49.012;12.104;2024-01-15T08:19:13;96417.31;;;22.05;51.72
65227;BME280;51805;49.012;12.104;2024-01-15T08:21:39;96376.75;;;21.75;51.86
65227;BME280;51805;49.012;12.104;2024-01-15T08:24:07;96409.81;;;22.02;51.73
65227;BME280;51805;49.012;12.104;2024-01-15T08:26:33;96407.13;;;22.02;51.90
65227;BME280;51805;49.012;12.104;2024-01-15T08:28:58;96418.28;;;22.09;51.90
65227;BME280;51805;49.012;12.104;2024-01-15T08:31:24;96412.41;;;22.16;52.00
65227;BME280;51805;49.012;12.104;2024-01-15T08:33:49;96399.16;;;22.06;52.50
65227;BME280;51805;49.012;12.104;2024-01-15T08:36:14;96393.59;;;22.02;52.40
65227;BME280;51805;49.012;12.104;2024-01-15T08:38:40;96402.22;;;22.13;52.16
65227;BME280;51805;49.012;12.104;2024-01-15T08:41:05;96402.53;;;22.11;52.10
65227;BME280;51805;49.012;12.104;2024-01-15T08:43:30;96370.03;;;22.03;52.05
65227;BME280;51805;49.012;12.104;2024-01-15T08:45:56;96371.63;;;22.04;52.02
65227;BME280;51805;49.012;12.104;2024-01-15T08:48:22;96370.34;;;22.01;52.01
65227;BME280;51805;49.012;12.104;2024-01-15T08:50:47;96348.50;;;21.89;52.04
65227;BME280;51805;49.012;12.104;2024-01-15T08:53:13;96406.38;;;22.27;52.09
65227;BME280;51805;49.012;12.104;2024-01-15T08:55:38;96396.84;;;22.30;51.85
65227;BME280;51805;49.012;12.104;2024-01-15T08:58:04;96397.63;;;22.30;51.94
65227;BME280;51805;49.012;12.104;2024-01-15T09:00:29;96402.28;;;22.30;51.88
65227;BME280;51805;49.012;12.104;2024-01-15T09:02:55;96397.31;;;22.23;52.33
65227;BME280;51805;49.012;12.104;2024-01-15T09:05:21;96386.44;;;22.15;51.97
65227;BME280;51805;49.012;12.104;2024-01-15T09:07:46;96386.31;;;22.20;52.10
65227;BME280;51805;49.012;12.104;2024-01-15T09:10:11;96396.34;;;22.19;52.14
65227;BME280;51805;49.012;12.104;2024-01-15T09:12:37;96397.81;;;22.25;52.14
65227;BME280;51805;49.012;12.104;2024-01-15T09:15:02;96377.69;;;22.18;52.02
65227;BME280;51805;49.012;12.104;2024-01-15T09:17:27;96393.66;;;22.28;51.93
65227;BME280;51805;49.012;12.104;2024-01-15T09:19:53;96396.84;;;22.38;51.91
65227;BME280;51805;49.012;12.104;2024-01-15T09:22:18;96388.25;;;22.28;51.62
65227;BME280;51805;49.012;12.104;2024-01-15T09:24:44;96390.00;;;22.32;51.91
65227;BME280;51805;49.012;12.104;2024-01-15T09:27:09;96390.31;;;22.31;51.88
65227;BME280;51805;49.012;12.104;2024-01-15T09:29:35;96394.78;;;22.35;51.67
65227;BME280;51805;49.012;12.104;2024-01-15T09:32:00;96404.97;;;22.38;51.74
65227;BME280;51805;49.012;12.104;2024-01-15T09:34:25;96402.59;;;22.37;51.42
65227;BME280;51805;49.012;12.104;2024-01-15T09:36:50;96415.34;;;22.45;51.76
65227;BME280;51805;49.012;12.104;2024-01-15T09:39:16;96410.56;;;22.42;51.56
65227;BME280;51805;49.012;12.104;2024-01-15T09:41:41;96409.94;;;22.45;51.63
65227;BME280;51805;49.012;12.104;2024-01-15T09:44:08;96384.28;;;22.34;51.77
65227;BME280;51805;49.012;12.104;2024-01-15T09:46:34;96386.34;;;22.37;51.56
65227;BME280;51805;49.012;12.104;2024-01-15T09:49:00;96402.00;;;22.48;51.80
65227;BME280;51805;49.012;12.104;2024-01-15T09:51:25;96396.72;;;22.43;51.64
65227;BME280;51805;49.012;12.104;2024-01-15T09:53:51;96383.47;;;22.33;51.61
65227;BME280;51805;49.012;12.104;2024-01-15T09:56:16;96370.56;;;22.30;51.48
65227;BME280;51805;49.012;12.104;2024-01-15T09:58:42;96394.50;;;22.45;51.41
65227;BME280;51805;49.012;12.104;2024-01-15T10:01:08;96404.25;;;22.55;51.53
65227;BME280;51805;49.012;12.104;2024-01-15T10:03:34;96393.69;;;22.45;51.58
65227;BME280;51805;49.012;12.104;2024-01-15T10:06:00;96389.22;;;22.49;51.59
65227;BME280;51805;49.012;12.104;2024-01-15T10:08:26;96392.25;;;22.47;51.50
65227;BME280;51805;49.012;12.104;2024-01-15T10:10:51;96399.47;;;22.52;51.69
65227;BME280;51805;49.012;12.104;2024-01-15T10:13:17;96390.84;;;22.50;51.58
65227;BME280;51805;49.012;12.104;2024-01-15T10:15:45;96375.06;;;22.43;51.33
65227;BME280;51805;49.012;12.104;2024-01-15T10:18:10;96383.69;;;22.54;51.46
65227;BME280;51805;49.012;12.104;2024-01-15T10:20:36;96387.22;;;22.54;51.67
65227;BME280;51805;49.012;12.104;2024-01-15T10:23:01;96381.63;;;22.51;51.47
65227;BME280;51805;49.012;12.104;2024-01-15T10:25:26;96382.56;;;22.55;51.40
65227;BME280;51805;49.012;12.104;2024-01-15T10:28:02;96373.69;;;22.54;51.49
65227;BME280;51805;49.012;12.104;2024-01-15T10:30:28;96367.94;;;22.56;51.38
65227;BME280;51805;49.012;12.104;2024-01-15T10:33:01;96374.31;;;22.60;51.53
65227;BME280;51805;49.012;12.104;2024-01-15T10:35:30;96364.28;;;22.60;51.44
65227;BME280;51805;49.012;12.104;2024-01-15T10:37:56;96361.09;;;22.58;51.61
65227;BME280;51805;49.012;12.104;2024-01-15T10:40:21;96343.59;;;22.56;51.61
65227;BME280;51805;49.012;12.104;2024-01-15T10:42:47;96348.38;;;22.59;51.46
65227;BME280;51805;49.012;12.104;2024-01-15T10:45:12;96347.06;;;22.56;51.53
65227;BME280;51805;49.012;12.104;2024-01-15T10:47:38;96350.59;;;22.65;51.42
65227;BME280;51805;49.012;12.104;2024-01-15T10:50:04;96335.91;;;22.58;51.40
65227;BME280;51805;49.012;12.104;2024-01-15T10:52:30;96345.97;;;22.66;51.29
65227;BME280;51805;49.012;12.104;2024-01-15T10:54:56;96348.53;;;22.62;51.36
65227;BME280;51805;49.012;12.104;2024-01-15T10:57:21;96341.00;;;22.59;51.31
65227;BME280;51805;49.012;12.104;2024-01-15T10:59:46;96345.19;;;22.65;51.41
65227;BME280;51805;49.012;12.104;2024-01-15T11:02:13;96344.22;;;22.61;51.07
65227;BME280;51805;49.012;12.104;2024-01-15T11:04:39;96359.03;;;22.64;50.97
65227;BME280;51805;49.012;12.104;2024-01-15T11:07:05;96347.56;;;22.58;51.36
65227;BME280;51805;49.012;12.104;2024-01-15T11:09:30;96336.88;;;22.53;51.51
65227;BME280;51805;49.012;12.104;2024-01-15T11:12:12;96363.66;;;22.63;51.32
65227;BME280;51805;49.012;12.104;2024-01-15T11:14:45;96338.13;;;22.47;51.14
65227;BME280;51805;49.012;12.104;2024-01-15T11:17:11;96354.41;;;22.64;51.25
65227;BME280;51805;49.012;12.104;2024-01-15T11:19:37;96339.28;;;22.63;51.19
65227;BME280;51805;49.012;12.104;2024-01-15T11:22:03;96331.00;;;22.60;51.17
65227;BME280;51805;49.012;12.104;2024-01-15T11:24:39;96332.44;;;22.57;51.17
65227;BME280;51805;49.012;12.104;2024-01-15T11:27:06;96339.28;;;22.63;50.86
65227;BME280;51805;49.012;12.104;2024-01-15T11:29:35;96324.63;;;22.64;50.96
65227;BME280;51805;49.012;12.104;2024-01-15T11:32:08;96320.34;;;22.63;50.86
65227;BME280;51805;49.012;12.104;2024-01-15T11:34:53;96331.47;;;22.70;50.91
65227;BME280;51805;49.012;12.104;2024-01-15T11:37:18;96333.06;;;22.71;50.92
65227;BME280;51805;49.012;12.104;2024-01-15T11:39:44;96313.00;;;22.64;50.97
65227;BME280;51805;49.012;12.104;2024-01-15T11:42:11;96327.66;;;22.71;50.83
65227;BME280;51805;49.012;12.104;2024-01-15T11:44:37;96328.91;;;22.74;50.83
65227;BME280;51805;49.012;12.104;2024-01-15T11:47:07;96313.81;;;22.73;50.87
65227;BME280;51805;49.012;12.104;2024-01-15T11:49:58;96327.03;;;22.74;50.87
65227;BME280;51805;49.012;12.104;2024-01-15T11:52:25;96322.88;;;22.68;50.84
65227;BME280;51805;49.012;12.104;2024-01-15T11:55:12;96328.13;;;22.73;50.91
65227;BME280;51805;49.012;12.104;2024-01-15T11:57:45;96327.34;;;22.73;50.98
65227;BME280;51805;49.012;12.104;2024-01-15T12:00:12;96325.09;;;22.75;50.86
65227;BME280;51805;49.012;12.104;2024-01-15T12:02:39;96315.84;;;22.67;51.01
65227;BME280;51805;49.012;12.104;2024-01-15T12:05:05;96307.41;;;22.69;50.74
65227;BME280;51805;49.012;12.104;2024-01-15T12:07:30;96309.81;;;22.70;50.89
65227;BME280;51805;49.012;12.104;2024-01-15T12:09:55;96314.56;;;22.73;50.65
65227;BME280;51805;49.012;12.104;2024-01-15T12:12:29;96289.28;;;22.61;50.85
65227;BME280;51805;49.012;12.104;2024-01-15T12:14:58;96289.41;;;22.64;50.86
65227;BME280;51805;49.012;12.104;2024-01-15T12:17:24;96308.53;;;22.76;50.67
65227;BME280;51805;49.012;12.104;2024-01-15T12:19:49;96298.50;;;22.77;50.89
65227;BME280;51805;49.012;12.104;2024-01-15T12:22:14;96295.94;;;22.72;50.69
65227;BME280;51805;49.012;12.104;2024-01-15T12:24:40;96292.91;;;22.73;50.76
65227;BME280;51805;49.012;12.104;2024-01-15T12:27:05;96280.50;;;22.72;50.73
65227;BME280;51805;49.012;12.104;2024-01-15T12:29:30;96289.25;;;22.78;50.67
65227;BME280;51805;49.012;12.104;2024-01-15T12:31:56;96279.84;;;22.75;50.63
65227;BME280;51805;49.012;12.104;2024-01-15T12:34:21;96283.06;;;22.77;50.79
65227;BME280;51805;49.012;12.104;2024-01-15T12:36:46;96268.53;;;22.73;50.68
65227;BME280;51805;49.012;12.104;2024-01-15T12:39:12;96258.53;;;22.65;50.66
65227;BME280;51805;49.012;12.104;2024-01-15T12:41:38;96277.63;;;22.77;50.85
65227;BME280;51805;49.012;12.104;2024-01-15T12:44:04;96279.38;;;22.82;50.64